sensor_id;sensor_type;location;lat;lon;timestamp;P1;durP1;ratioP1;P2;durP2;ratioP2
35276;SDS011;21401;50.878;8.050;2022-09-24T00:01:27;8.40;;;5.82;;
35276;SDS011;21401;50.878;8.050;2022-09-24T00:03:59;8.95;;;6.18;;
35276;SDS011;21401;50.878;8.050;2022-09-24T00:06:28;9.82;;;5.30;;
35276;SDS011;21401;50.878;8.050;2022-09-24T00:08:55;10.18;;;5.55;;
35276;SDS011;21401;50.878;8.050;2022-09-24T00:11:25;7.90;;;5.30;;
35276;SDS011;21401;50.878;8.050;2022-09-24T00:13:52;8.15;;;5.75;;
35276;SDS011;21401;50.878;8.050;2022-09-24T00:16:25;11.40;;;5.93;;
35276;SDS011;21401;50.878;8.050;2022-09-24T00:18:54;8.90;;;5.78;;
35276;SDS011;21401;50.878;8.050;2022-09-24T00:21:43;7.53;;;5.22;;
35276;SDS011;21401;50.878;8.050;2022-09-24T00:24:09;8.40;;;5.10;;
35276;SDS011;21401;50.878;8.050;2022-09-24T00:26:58;9.32;;;5.50;;
35276;SDS011;21401;50.878;8.050;2022-09-24T00:29:23;9.65;;;5.50;;
35276;SDS011;21401;50.878;8.050;2022-09-24T00:31:54;8.43;;;5.10;;
35276;SDS011;21401;50.878;8.050;2022-09-24T00:34:19;7.65;;;5.18;;
35276;SDS011;21401;50.878;8.050;2022-09-24T00:36:48;9.10;;;4.72;;
35276;SDS011;21401;50.878;8.050;2022-09-24T00:39:14;8.85;;;4.63;;
35276;SDS011;21401;50.878;8.050;2022-09-24T00:41:42;9.38;;;4.75;;
35276;SDS011;21401;50.878;8.050;2022-09-24T00:47:10;7.32;;;4.10;;
35276;SDS011;21401;50.878;8.050;2022-09-24T00:49:37;8.35;;;4.88;;
35276;SDS011;21401;50.878;8.050;2022-09-24T00:52:04;9.02;;;5.03;;
35276;SDS011;21401;50.878;8.050;2022-09-24T00:54:30;6.70;;;4.85;;
35276;SDS011;21401;50.878;8.050;2022-09-24T00:56:57;8.98;;;5.10;;
35276;SDS011;21401;50.878;8.050;2022-09-24T00:59:24;7.22;;;4.53;;
35276;SDS011;21401;50.878;8.050;2022-09-24T01:01:50;7.00;;;5.05;;
35276;SDS011;21401;50.878;8.050;2022-09-24T01:04:23;10.32;;;4.60;;
35276;SDS011;21401;50.878;8.050;2022-09-24T01:06:51;7.80;;;4.28;;
35276;SDS011;21401;50.878;8.050;2022-09-24T01:09:23;7.50;;;4.20;;
35276;SDS011;21401;50.878;8.050;2022-09-24T01:23:29;7.00;;;5.00;;
35276;SDS011;21401;50.878;8.050;2022-09-24T01:26:20;4.85;;;4.22;;
35276;SDS011;21401;50.878;8.050;2022-09-24T01:34:31;6.47;;;4.22;;
35276;SDS011;21401;50.878;8.050;2022-09-24T01:37:04;7.32;;;4.32;;
35276;SDS011;21401;50.878;8.050;2022-09-24T01:39:30;5.80;;;4.40;;
35276;SDS011;21401;50.878;8.050;2022-09-24T01:42:00;5.65;;;5.05;;
35276;SDS011;21401;50.878;8.050;2022-09-24T01:44:28;7.18;;;4.53;;
35276;SDS011;21401;50.878;8.050;2022-09-24T01:46:57;8.63;;;5.60;;
35276;SDS011;21401;50.878;8.050;2022-09-24T01:49:23;5.63;;;4.00;;
35276;SDS011;21401;50.878;8.050;2022-09-24T01:51:55;9.70;;;4.68;;
35276;SDS011;21401;50.878;8.050;2022-09-24T01:54:29;11.18;;;4.82;;
35276;SDS011;21401;50.878;8.050;2022-09-24T01:57:06;7.25;;;5.30;;
35276;SDS011;21401;50.878;8.050;2022-09-24T01:59:41;11.38;;;4.70;;
35276;SDS011;21401;50.878;8.050;2022-09-24T02:02:18;10.13;;;4.80;;
35276;SDS011;21401;50.878;8.050;2022-09-24T02:04:59;11.32;;;4.63;;
35276;SDS011;21401;50.878;8.050;2022-09-24T02:10:38;7.85;;;4.65;;
35276;SDS011;21401;50.878;8.050;2022-09-24T02:13:21;7.93;;;4.95;;
35276;SDS011;21401;50.878;8.050;2022-09-24T02:15:54;8.43;;;4.40;;
35276;SDS011;21401;50.878;8.050;2022-09-24T02:18:24;10.98;;;5.00;;
35276;SDS011;21401;50.878;8.050;2022-09-24T02:20:57;9.50;;;4.82;;
35276;SDS011;21401;50.878;8.050;2022-09-24T02:23:27;7.78;;;4.40;;
35276;SDS011;21401;50.878;8.050;2022-09-24T02:25:55;7.47;;;4.63;;
35276;SDS011;21401;50.878;8.050;2022-09-24T02:28:27;6.90;;;4.63;;
35276;SDS011;21401;50.878;8.050;2022-09-24T02:30:58;6.97;;;5.55;;
35276;SDS011;21401;50.878;8.050;2022-09-24T02:33:28;7.68;;;4.55;;
35276;SDS011;21401;50.878;8.050;2022-09-24T02:36:14;7.72;;;4.18;;
35276;SDS011;21401;50.878;8.050;2022-09-24T02:38:41;6.35;;;4.88;;
35276;SDS011;21401;50.878;8.050;2022-09-24T02:41:09;8.07;;;4.72;;
35276;SDS011;21401;50.878;8.050;2022-09-24T02:43:35;7.70;;;4.38;;
35276;SDS011;21401;50.878;8.050;2022-09-24T02:46:00;7.72;;;5.70;;
35276;SDS011;21401;50.878;8.050;2022-09-24T02:48:28;7.75;;;5.15;;
35276;SDS011;21401;50.878;8.050;2022-09-24T02:50:54;6.63;;;4.47;;
35276;SDS011;21401;50.878;8.050;2022-09-24T02:53:19;9.10;;;4.78;;
35276;SDS011;21401;50.878;8.050;2022-09-24T02:55:45;7.28;;;5.25;;
35276;SDS011;21401;50.878;8.050;2022-09-24T02:58:13;6.38;;;3.92;;
35276;SDS011;21401;50.878;8.050;2022-09-24T03:00:39;9.43;;;4.88;;
35276;SDS011;21401;50.878;8.050;2022-09-24T03:03:07;6.60;;;4.88;;
35276;SDS011;21401;50.878;8.050;2022-09-24T03:05:35;5.60;;;4.43;;
35276;SDS011;21401;50.878;8.050;2022-09-24T03:08:01;7.43;;;4.82;;
35276;SDS011;21401;50.878;8.050;2022-09-24T03:10:29;7.45;;;4.70;;
35276;SDS011;21401;50.878;8.050;2022-09-24T03:12:55;9.77;;;5.15;;
35276;SDS011;21401;50.878;8.050;2022-09-24T03:15:20;7.18;;;5.07;;
35276;SDS011;21401;50.878;8.050;2022-09-24T03:17:49;6.10;;;4.50;;
35276;SDS011;21401;50.878;8.050;2022-09-24T03:20:15;9.15;;;4.80;;
35276;SDS011;21401;50.878;8.050;2022-09-24T03:22:43;9.68;;;4.65;;
35276;SDS011;21401;50.878;8.050;2022-09-24T03:25:09;8.82;;;4.63;;
35276;SDS011;21401;50.878;8.050;2022-09-24T03:27:36;14.00;;;7.30;;
35276;SDS011;21401;50.878;8.050;2022-09-24T03:30:02;10.90;;;4.60;;
35276;SDS011;21401;50.878;8.050;2022-09-24T03:32:46;6.93;;;4.75;;
35276;SDS011;21401;50.878;8.050;2022-09-24T03:35:14;9.27;;;5.03;;
35276;SDS011;21401;50.878;8.050;2022-09-24T03:37:43;10.27;;;4.13;;
35276;SDS011;21401;50.878;8.050;2022-09-24T03:40:10;5.25;;;3.90;;
35276;SDS011;21401;50.878;8.050;2022-09-24T03:42:35;9.70;;;4.32;;
35276;SDS011;21401;50.878;8.050;2022-09-24T03:45:03;7.07;;;4.10;;
35276;SDS011;21401;50.878;8.050;2022-09-24T03:47:32;6.30;;;4.10;;
35276;SDS011;21401;50.878;8.050;2022-09-24T03:49:57;10.73;;;4.28;;
35276;SDS011;21401;50.878;8.050;2022-09-24T03:52:25;5.13;;;4.38;;
35276;SDS011;21401;50.878;8.050;2022-09-24T03:54:51;5.50;;;3.83;;
35276;SDS011;21401;50.878;8.050;2022-09-24T03:57:19;5.40;;;4.00;;
35276;SDS011;21401;50.878;8.050;2022-09-24T03:59:47;13.13;;;5.82;;
35276;SDS011;21401;50.878;8.050;2022-09-24T04:02:15;6.65;;;4.65;;
35276;SDS011;21401;50.878;8.050;2022-09-24T04:04:40;7.38;;;3.97;;
35276;SDS011;21401;50.878;8.050;2022-09-24T04:07:06;7.65;;;4.43;;
35276;SDS011;21401;50.878;8.050;2022-09-24T04:09:31;7.78;;;4.57;;
35276;SDS011;21401;50.878;8.050;2022-09-24T04:12:02;8.60;;;4.00;;
35276;SDS011;21401;50.878;8.050;2022-09-24T04:14:27;5.57;;;4.25;;
35276;SDS011;21401;50.878;8.050;2022-09-24T04:16:53;5.63;;;4.30;;
35276;SDS011;21401;50.878;8.050;2022-09-24T04:19:19;4.25;;;3.78;;
35276;SDS011;21401;50.878;8.050;2022-09-24T04:21:47;7.05;;;4.70;;
35276;SDS011;21401;50.878;8.050;2022-09-24T04:24:12;8.77;;;4.55;;
35276;SDS011;21401;50.878;8.050;2022-09-24T04:26:38;5.25;;;4.38;;
35276;SDS011;21401;50.878;8.050;2022-09-24T04:29:03;8.30;;;4.18;;
35276;SDS011;21401;50.878;8.050;2022-09-24T04:31:30;6.95;;;4.63;;
35276;SDS011;21401;50.878;8.050;2022-09-24T04:33:58;6.68;;;5.10;;
35276;SDS011;21401;50.878;8.050;2022-09-24T04:36:24;8.55;;;5.03;;
35276;SDS011;21401;50.878;8.050;2022-09-24T04:38:52;6.28;;;4.50;;
35276;SDS011;21401;50.878;8.050;2022-09-24T04:41:17;8.13;;;5.10;;
35276;SDS011;21401;50.878;8.050;2022-09-24T04:43:47;5.80;;;4.30;;
35276;SDS011;21401;50.878;8.050;2022-09-24T04:46:15;7.43;;;4.57;;
35276;SDS011;21401;50.878;8.050;2022-09-24T04:48:43;8.25;;;4.50;;
35276;SDS011;21401;50.878;8.050;2022-09-24T04:51:08;7.10;;;4.45;;
35276;SDS011;21401;50.878;8.050;2022-09-24T04:53:36;6.80;;;4.43;;
35276;SDS011;21401;50.878;8.050;2022-09-24T04:56:02;6.28;;;4.20;;
35276;SDS011;21401;50.878;8.050;2022-09-24T04:58:36;8.48;;;4.38;;
35276;SDS011;21401;50.878;8.050;2022-09-24T05:01:02;11.30;;;4.45;;
35276;SDS011;21401;50.878;8.050;2022-09-24T05:03:30;7.95;;;4.55;;
35276;SDS011;21401;50.878;8.050;2022-09-24T05:05:59;7.13;;;4.20;;
35276;SDS011;21401;50.878;8.050;2022-09-24T05:08:25;5.95;;;4.60;;
35276;SDS011;21401;50.878;8.050;2022-09-24T05:10:51;8.57;;;4.60;;
35276;SDS011;21401;50.878;8.050;2022-09-24T05:13:18;8.75;;;4.40;;
35276;SDS011;21401;50.878;8.050;2022-09-24T05:15:43;6.63;;;4.70;;
35276;SDS011;21401;50.878;8.050;2022-09-24T05:18:09;5.60;;;3.72;;
35276;SDS011;21401;50.878;8.050;2022-09-24T05:20:37;10.15;;;4.47;;
35276;SDS011;21401;50.878;8.050;2022-09-24T05:23:02;5.97;;;4.32;;
35276;SDS011;21401;50.878;8.050;2022-09-24T05:25:31;8.07;;;5.47;;
35276;SDS011;21401;50.878;8.050;2022-09-24T05:27:56;7.85;;;4.20;;
35276;SDS011;21401;50.878;8.050;2022-09-24T05:30:23;8.27;;;4.03;;
35276;SDS011;21401;50.878;8.050;2022-09-24T05:32:49;5.15;;;3.97;;
35276;SDS011;21401;50.878;8.050;2022-09-24T05:35:21;9.98;;;4.38;;
35276;SDS011;21401;50.878;8.050;2022-09-24T05:37:47;7.22;;;3.80;;
35276;SDS011;21401;50.878;8.050;2022-09-24T05:40:13;6.90;;;4.00;;
35276;SDS011;21401;50.878;8.050;2022-09-24T05:43:00;8.25;;;4.07;;
35276;SDS011;21401;50.878;8.050;2022-09-24T05:45:27;9.13;;;4.07;;
35276;SDS011;21401;50.878;8.050;2022-09-24T05:47:54;5.60;;;3.53;;
35276;SDS011;21401;50.878;8.050;2022-09-24T05:50:19;6.10;;;3.33;;
35276;SDS011;21401;50.878;8.050;2022-09-24T05:52:45;8.93;;;3.67;;
35276;SDS011;21401;50.878;8.050;2022-09-24T05:55:13;6.50;;;3.38;;
35276;SDS011;21401;50.878;8.050;2022-09-24T05:57:39;6.45;;;3.70;;
35276;SDS011;21401;50.878;8.050;2022-09-24T06:00:05;6.85;;;3.28;;
35276;SDS011;21401;50.878;8.050;2022-09-24T06:02:31;8.13;;;3.90;;
35276;SDS011;21401;50.878;8.050;2022-09-24T06:04:56;5.32;;;3.78;;
35276;SDS011;21401;50.878;8.050;2022-09-24T06:07:24;12.43;;;4.32;;
35276;SDS011;21401;50.878;8.050;2022-09-24T06:09:50;6.75;;;4.10;;
35276;SDS011;21401;50.878;8.050;2022-09-24T06:12:16;6.47;;;4.40;;
35276;SDS011;21401;50.878;8.050;2022-09-24T06:14:46;6.22;;;4.35;;
35276;SDS011;21401;50.878;8.050;2022-09-24T06:17:11;5.57;;;4.13;;
35276;SDS011;21401;50.878;8.050;2022-09-24T06:19:37;7.25;;;4.40;;
35276;SDS011;21401;50.878;8.050;2022-09-24T06:22:03;10.35;;;4.13;;
35276;SDS011;21401;50.878;8.050;2022-09-24T06:24:28;8.50;;;4.20;;
35276;SDS011;21401;50.878;8.050;2022-09-24T06:26:56;4.90;;;3.65;;
35276;SDS011;21401;50.878;8.050;2022-09-24T06:29:22;8.18;;;4.45;;
35276;SDS011;21401;50.878;8.050;2022-09-24T06:31:47;8.93;;;4.07;;
35276;SDS011;21401;50.878;8.050;2022-09-24T06:34:13;10.13;;;4.45;;
35276;SDS011;21401;50.878;8.050;2022-09-24T06:36:39;6.60;;;4.63;;
35276;SDS011;21401;50.878;8.050;2022-09-24T06:39:06;6.82;;;4.70;;
35276;SDS011;21401;50.878;8.050;2022-09-24T06:41:31;9.00;;;5.40;;
35276;SDS011;21401;50.878;8.050;2022-09-24T06:43:57;7.65;;;4.10;;
35276;SDS011;21401;50.878;8.050;2022-09-24T06:46:22;6.50;;;4.35;;
35276;SDS011;21401;50.878;8.050;2022-09-24T06:48:51;6.25;;;4.40;;
35276;SDS011;21401;50.878;8.050;2022-09-24T06:51:18;7.28;;;4.00;;
35276;SDS011;21401;50.878;8.050;2022-09-24T06:53:44;7.88;;;4.13;;
35276;SDS011;21401;50.878;8.050;2022-09-24T06:56:10;8.43;;;4.15;;
35276;SDS011;21401;50.878;8.050;2022-09-24T06:58:38;6.25;;;4.22;;
35276;SDS011;21401;50.878;8.050;2022-09-24T07:01:06;6.15;;;4.72;;
35276;SDS011;21401;50.878;8.050;2022-09-24T07:03:32;6.47;;;4.50;;
35276;SDS011;21401;50.878;8.050;2022-09-24T07:06:03;7.03;;;4.10;;
35276;SDS011;21401;50.878;8.050;2022-09-24T07:08:30;9.05;;;4.20;;
35276;SDS011;21401;50.878;8.050;2022-09-24T07:11:00;7.38;;;4.32;;
35276;SDS011;21401;50.878;8.050;2022-09-24T07:13:28;8.02;;;4.15;;
35276;SDS011;21401;50.878;8.050;2022-09-24T07:15:54;7.80;;;3.75;;
35276;SDS011;21401;50.878;8.050;2022-09-24T07:18:20;6.32;;;3.40;;
35276;SDS011;21401;50.878;8.050;2022-09-24T07:20:51;6.90;;;3.47;;
35276;SDS011;21401;50.878;8.050;2022-09-24T07:23:20;6.22;;;4.13;;
35276;SDS011;21401;50.878;8.050;2022-09-24T07:25:47;6.25;;;4.13;;
35276;SDS011;21401;50.878;8.050;2022-09-24T07:28:13;5.30;;;4.10;;
35276;SDS011;21401;50.878;8.050;2022-09-24T07:30:42;9.20;;;3.72;;
35276;SDS011;21401;50.878;8.050;2022-09-24T07:33:08;5.90;;;4.43;;
35276;SDS011;21401;50.878;8.050;2022-09-24T07:35:35;7.70;;;3.83;;
35276;SDS011;21401;50.878;8.050;2022-09-24T07:38:03;11.10;;;3.50;;
35276;SDS011;21401;50.878;8.050;2022-09-24T07:40:31;11.23;;;3.88;;
35276;SDS011;21401;50.878;8.050;2022-09-24T07:42:57;9.40;;;3.72;;
35276;SDS011;21401;50.878;8.050;2022-09-24T07:45:26;8.80;;;3.95;;
35276;SDS011;21401;50.878;8.050;2022-09-24T07:48:00;12.63;;;4.88;;
35276;SDS011;21401;50.878;8.050;2022-09-24T07:50:29;9.68;;;4.65;;
35276;SDS011;21401;50.878;8.050;2022-09-24T07:52:56;8.55;;;4.55;;
35276;SDS011;21401;50.878;8.050;2022-09-24T07:55:27;6.72;;;4.57;;
35276;SDS011;21401;50.878;8.050;2022-09-24T07:57:53;6.82;;;5.15;;
35276;SDS011;21401;50.878;8.050;2022-09-24T08:00:20;11.25;;;5.43;;
35276;SDS011;21401;50.878;8.050;2022-09-24T08:02:51;10.52;;;5.75;;
35276;SDS011;21401;50.878;8.050;2022-09-24T08:05:17;11.10;;;5.20;;
35276;SDS011;21401;50.878;8.050;2022-09-24T08:07:50;9.82;;;5.20;;
35276;SDS011;21401;50.878;8.050;2022-09-24T08:10:16;12.52;;;5.57;;
35276;SDS011;21401;50.878;8.050;2022-09-24T08:12:44;6.93;;;5.40;;
35276;SDS011;21401;50.878;8.050;2022-09-24T08:15:10;7.00;;;5.10;;
35276;SDS011;21401;50.878;8.050;2022-09-24T08:17:36;11.38;;;5.30;;
35276;SDS011;21401;50.878;8.050;2022-09-24T08:20:04;12.30;;;5.60;;
35276;SDS011;21401;50.878;8.050;2022-09-24T08:22:32;8.10;;;4.60;;
35276;SDS011;21401;50.878;8.050;2022-09-24T08:25:00;7.43;;;4.47;;
35276;SDS011;21401;50.878;8.050;2022-09-24T08:27:28;11.18;;;5.03;;
35276;SDS011;21401;50.878;8.050;2022-09-24T08:29:56;11.35;;;4.90;;
35276;SDS011;21401;50.878;8.050;2022-09-24T08:32:26;9.85;;;4.70;;
35276;SDS011;21401;50.878;8.050;2022-09-24T08:34:53;6.55;;;4.38;;
35276;SDS011;21401;50.878;8.050;2022-09-24T08:37:19;11.35;;;5.18;;
35276;SDS011;21401;50.878;8.050;2022-09-24T08:39:47;9.40;;;5.32;;
35276;SDS011;21401;50.878;8.050;2022-09-24T08:44:52;7.93;;;5.13;;
35276;SDS011;21401;50.878;8.050;2022-09-24T08:47:45;14.25;;;5.00;;
35276;SDS011;21401;50.878;8.050;2022-09-24T08:50:23;11.48;;;4.97;;
35276;SDS011;21401;50.878;8.050;2022-09-24T08:55:34;7.65;;;5.20;;
35276;SDS011;21401;50.878;8.050;2022-09-24T09:09:03;8.30;;;3.80;;
35276;SDS011;21401;50.878;8.050;2022-09-24T09:11:36;7.53;;;4.85;;
35276;SDS011;21401;50.878;8.050;2022-09-24T09:14:07;10.70;;;4.53;;
35276;SDS011;21401;50.878;8.050;2022-09-24T09:19:10;18.35;;;5.57;;
35276;SDS011;21401;50.878;8.050;2022-09-24T09:21:40;11.88;;;5.38;;
35276;SDS011;21401;50.878;8.050;2022-09-24T09:24:18;9.13;;;5.65;;
35276;SDS011;21401;50.878;8.050;2022-09-24T09:26:48;11.80;;;6.20;;
35276;SDS011;21401;50.878;8.050;2022-09-24T09:29:18;10.63;;;5.65;;
35276;SDS011;21401;50.878;8.050;2022-09-24T09:34:43;11.23;;;5.90;;
35276;SDS011;21401;50.878;8.050;2022-09-24T09:37:41;13.23;;;6.38;;
35276;SDS011;21401;50.878;8.050;2022-09-24T09:43:03;10.73;;;5.82;;
35276;SDS011;21401;50.878;8.050;2022-09-24T09:48:16;12.57;;;5.70;;
35276;SDS011;21401;50.878;8.050;2022-09-24T09:50:48;17.35;;;7.38;;
35276;SDS011;21401;50.878;8.050;2022-09-24T09:53:26;12.00;;;5.53;;
35276;SDS011;21401;50.878;8.050;2022-09-24T09:55:53;14.98;;;5.78;;
35276;SDS011;21401;50.878;8.050;2022-09-24T09:58:22;11.15;;;5.88;;
35276;SDS011;21401;50.878;8.050;2022-09-24T10:00:52;13.57;;;6.25;;
35276;SDS011;21401;50.878;8.050;2022-09-24T10:06:13;10.05;;;5.75;;
35276;SDS011;21401;50.878;8.050;2022-09-24T10:08:48;12.38;;;6.80;;
35276;SDS011;21401;50.878;8.050;2022-09-24T10:11:14;11.48;;;7.28;;
35276;SDS011;21401;50.878;8.050;2022-09-24T10:13:41;18.08;;;8.60;;
35276;SDS011;21401;50.878;8.050;2022-09-24T10:16:07;15.98;;;8.18;;
35276;SDS011;21401;50.878;8.050;2022-09-24T10:18:45;21.60;;;11.38;;
35276;SDS011;21401;50.878;8.050;2022-09-24T10:24:01;20.50;;;11.40;;
35276;SDS011;21401;50.878;8.050;2022-09-24T10:26:39;15.10;;;9.27;;
35276;SDS011;21401;50.878;8.050;2022-09-24T10:29:14;16.02;;;8.93;;
35276;SDS011;21401;50.878;8.050;2022-09-24T10:32:05;12.63;;;7.97;;
35276;SDS011;21401;50.878;8.050;2022-09-24T10:34:37;13.65;;;7.82;;
35276;SDS011;21401;50.878;8.050;2022-09-24T10:37:12;11.57;;;7.32;;
35276;SDS011;21401;50.878;8.050;2022-09-24T10:39:42;10.52;;;6.88;;
35276;SDS011;21401;50.878;8.050;2022-09-24T10:42:21;10.75;;;7.40;;
35276;SDS011;21401;50.878;8.050;2022-09-24T10:44:49;14.15;;;6.35;;
35276;SDS011;21401;50.878;8.050;2022-09-24T10:47:29;8.45;;;5.88;;
35276;SDS011;21401;50.878;8.050;2022-09-24T10:52:51;9.52;;;6.50;;
35276;SDS011;21401;50.878;8.050;2022-09-24T10:55:51;10.93;;;7.10;;
35276;SDS011;21401;50.878;8.050;2022-09-24T11:01:17;10.77;;;6.28;;
35276;SDS011;21401;50.878;8.050;2022-09-24T11:11:38;10.60;;;6.13;;
35276;SDS011;21401;50.878;8.050;2022-09-24T11:17:26;14.77;;;6.22;;
35276;SDS011;21401;50.878;8.050;2022-09-24T11:31:14;9.75;;;6.18;;
35276;SDS011;21401;50.878;8.050;2022-09-24T11:52:39;9.65;;;4.22;;
35276;SDS011;21401;50.878;8.050;2022-09-24T11:55:24;5.63;;;4.07;;
35276;SDS011;21401;50.878;8.050;2022-09-24T11:58:06;8.00;;;4.00;;
35276;SDS011;21401;50.878;8.050;2022-09-24T12:00:43;11.13;;;4.57;;
35276;SDS011;21401;50.878;8.050;2022-09-24T12:03:19;9.18;;;4.38;;
35276;SDS011;21401;50.878;8.050;2022-09-24T12:05:56;6.90;;;4.28;;
35276;SDS011;21401;50.878;8.050;2022-09-24T12:08:34;6.75;;;4.40;;
35276;SDS011;21401;50.878;8.050;2022-09-24T12:14:02;7.95;;;4.43;;
35276;SDS011;21401;50.878;8.050;2022-09-24T12:16:36;7.80;;;4.20;;
35276;SDS011;21401;50.878;8.050;2022-09-24T12:21:45;17.60;;;9.57;;
35276;SDS011;21401;50.878;8.050;2022-09-24T12:24:29;8.80;;;3.88;;
35276;SDS011;21401;50.878;8.050;2022-09-24T12:27:03;10.98;;;7.22;;
35276;SDS011;21401;50.878;8.050;2022-09-24T12:29:42;10.00;;;4.18;;
35276;SDS011;21401;50.878;8.050;2022-09-24T12:37:54;8.27;;;4.18;;
35276;SDS011;21401;50.878;8.050;2022-09-24T12:43:38;5.45;;;3.25;;
35276;SDS011;21401;50.878;8.050;2022-09-24T12:46:14;8.70;;;3.22;;
35276;SDS011;21401;50.878;8.050;2022-09-24T12:48:46;6.90;;;3.50;;
35276;SDS011;21401;50.878;8.050;2022-09-24T12:51:14;4.13;;;2.83;;
35276;SDS011;21401;50.878;8.050;2022-09-24T12:53:53;4.40;;;2.65;;
35276;SDS011;21401;50.878;8.050;2022-09-24T12:56:30;2.97;;;2.17;;
35276;SDS011;21401;50.878;8.050;2022-09-24T12:58:56;4.85;;;2.75;;
35276;SDS011;21401;50.878;8.050;2022-09-24T13:04:00;6.05;;;3.22;;
35276;SDS011;21401;50.878;8.050;2022-09-24T13:06:33;6.38;;;3.33;;
35276;SDS011;21401;50.878;8.050;2022-09-24T13:09:21;2.85;;;2.50;;
35276;SDS011;21401;50.878;8.050;2022-09-24T13:14:53;10.48;;;3.58;;
35276;SDS011;21401;50.878;8.050;2022-09-24T13:17:33;4.07;;;2.90;;
35276;SDS011;21401;50.878;8.050;2022-09-24T13:20:03;6.75;;;3.60;;
35276;SDS011;21401;50.878;8.050;2022-09-24T13:22:33;10.07;;;3.25;;
35276;SDS011;21401;50.878;8.050;2022-09-24T13:30:20;6.03;;;2.90;;
35276;SDS011;21401;50.878;8.050;2022-09-24T13:33:19;4.85;;;2.90;;
35276;SDS011;21401;50.878;8.050;2022-09-24T13:36:03;9.10;;;3.47;;
35276;SDS011;21401;50.878;8.050;2022-09-24T13:38:47;5.68;;;3.38;;
35276;SDS011;21401;50.878;8.050;2022-09-24T13:44:00;6.10;;;3.63;;
35276;SDS011;21401;50.878;8.050;2022-09-24T13:46:30;7.28;;;3.33;;
35276;SDS011;21401;50.878;8.050;2022-09-24T13:49:00;4.03;;;2.90;;
35276;SDS011;21401;50.878;8.050;2022-09-24T13:51:32;8.63;;;4.40;;
35276;SDS011;21401;50.878;8.050;2022-09-24T13:54:10;8.20;;;4.63;;
35276;SDS011;21401;50.878;8.050;2022-09-24T13:56:55;8.20;;;5.50;;
35276;SDS011;21401;50.878;8.050;2022-09-24T13:59:30;9.48;;;5.72;;
35276;SDS011;21401;50.878;8.050;2022-09-24T14:01:59;7.20;;;5.07;;
35276;SDS011;21401;50.878;8.050;2022-09-24T14:04:27;9.32;;;5.55;;
35276;SDS011;21401;50.878;8.050;2022-09-24T14:06:56;9.48;;;5.13;;
35276;SDS011;21401;50.878;8.050;2022-09-24T14:09:35;10.32;;;5.60;;
35276;SDS011;21401;50.878;8.050;2022-09-24T14:12:14;8.05;;;5.03;;
35276;SDS011;21401;50.878;8.050;2022-09-24T14:14:50;7.90;;;5.20;;
35276;SDS011;21401;50.878;8.050;2022-09-24T14:17:18;8.48;;;5.70;;
35276;SDS011;21401;50.878;8.050;2022-09-24T14:19:44;10.63;;;6.38;;
35276;SDS011;21401;50.878;8.050;2022-09-24T14:22:18;13.55;;;7.95;;
35276;SDS011;21401;50.878;8.050;2022-09-24T14:24:59;15.63;;;7.90;;
35276;SDS011;21401;50.878;8.050;2022-09-24T14:27:30;17.45;;;8.55;;
35276;SDS011;21401;50.878;8.050;2022-09-24T14:30:02;21.20;;;12.50;;
35276;SDS011;21401;50.878;8.050;2022-09-24T14:32:34;12.30;;;6.22;;
35276;SDS011;21401;50.878;8.050;2022-09-24T14:35:06;7.43;;;4.95;;
35276;SDS011;21401;50.878;8.050;2022-09-24T14:37:51;8.82;;;5.40;;
35276;SDS011;21401;50.878;8.050;2022-09-24T14:41:12;11.18;;;5.85;;
35276;SDS011;21401;50.878;8.050;2022-09-24T14:48:49;10.07;;;5.53;;
35276;SDS011;21401;50.878;8.050;2022-09-24T14:51:29;8.68;;;5.82;;
35276;SDS011;21401;50.878;8.050;2022-09-24T14:53:56;8.75;;;5.43;;
35276;SDS011;21401;50.878;8.050;2022-09-24T14:56:42;8.52;;;5.80;;
35276;SDS011;21401;50.878;8.050;2022-09-24T14:59:14;7.82;;;5.28;;
35276;SDS011;21401;50.878;8.050;2022-09-24T15:01:54;9.75;;;5.93;;
35276;SDS011;21401;50.878;8.050;2022-09-24T15:04:40;10.25;;;5.38;;
35276;SDS011;21401;50.878;8.050;2022-09-24T15:07:18;11.43;;;5.93;;
35276;SDS011;21401;50.878;8.050;2022-09-24T15:09:48;9.88;;;5.75;;
35276;SDS011;21401;50.878;8.050;2022-09-24T15:12:24;8.93;;;5.93;;
35276;SDS011;21401;50.878;8.050;2022-09-24T15:14:56;8.15;;;5.97;;
35276;SDS011;21401;50.878;8.050;2022-09-24T15:17:28;14.13;;;6.47;;
35276;SDS011;21401;50.878;8.050;2022-09-24T15:19:58;11.90;;;6.57;;
35276;SDS011;21401;50.878;8.050;2022-09-24T15:22:26;10.82;;;6.53;;
35276;SDS011;21401;50.878;8.050;2022-09-24T15:24:53;30.23;;;17.17;;
35276;SDS011;21401;50.878;8.050;2022-09-24T15:27:25;28.13;;;16.70;;
35276;SDS011;21401;50.878;8.050;2022-09-24T15:29:56;21.20;;;12.77;;
35276;SDS011;21401;50.878;8.050;2022-09-24T15:32:27;11.98;;;8.10;;
35276;SDS011;21401;50.878;8.050;2022-09-24T15:34:55;10.52;;;7.38;;
35276;SDS011;21401;50.878;8.050;2022-09-24T15:37:21;9.52;;;7.07;;
35276;SDS011;21401;50.878;8.050;2022-09-24T15:39:51;12.45;;;7.82;;
35276;SDS011;21401;50.878;8.050;2022-09-24T15:42:20;11.50;;;6.65;;
35276;SDS011;21401;50.878;8.050;2022-09-24T15:44:47;9.50;;;7.85;;
35276;SDS011;21401;50.878;8.050;2022-09-24T15:47:14;13.25;;;7.30;;
35276;SDS011;21401;50.878;8.050;2022-09-24T15:49:41;8.95;;;7.47;;
35276;SDS011;21401;50.878;8.050;2022-09-24T15:52:26;12.27;;;7.72;;
35276;SDS011;21401;50.878;8.050;2022-09-24T15:54:53;16.67;;;8.90;;
35276;SDS011;21401;50.878;8.050;2022-09-24T15:57:23;15.70;;;8.25;;
35276;SDS011;21401;50.878;8.050;2022-09-24T15:59:52;12.88;;;8.25;;
35276;SDS011;21401;50.878;8.050;2022-09-24T16:02:25;12.98;;;8.95;;
35276;SDS011;21401;50.878;8.050;2022-09-24T16:04:57;14.95;;;9.50;;
35276;SDS011;21401;50.878;8.050;2022-09-24T16:07:23;17.65;;;10.75;;
35276;SDS011;21401;50.878;8.050;2022-09-24T16:09:51;13.75;;;9.43;;
35276;SDS011;21401;50.878;8.050;2022-09-24T16:12:17;15.98;;;10.77;;
35276;SDS011;21401;50.878;8.050;2022-09-24T16:14:44;14.30;;;10.60;;
35276;SDS011;21401;50.878;8.050;2022-09-24T16:17:12;16.58;;;11.27;;
35276;SDS011;21401;50.878;8.050;2022-09-24T16:19:38;20.27;;;12.50;;
35276;SDS011;21401;50.878;8.050;2022-09-24T16:22:03;20.55;;;12.80;;
35276;SDS011;21401;50.878;8.050;2022-09-24T16:24:32;17.60;;;11.82;;
35276;SDS011;21401;50.878;8.050;2022-09-24T16:26:59;15.40;;;11.75;;
35276;SDS011;21401;50.878;8.050;2022-09-24T16:29:25;19.98;;;13.30;;
35276;SDS011;21401;50.878;8.050;2022-09-24T16:31:53;16.13;;;12.23;;
35276;SDS011;21401;50.878;8.050;2022-09-24T16:34:18;20.95;;;12.15;;
35276;SDS011;21401;50.878;8.050;2022-09-24T16:36:47;20.63;;;13.43;;
35276;SDS011;21401;50.878;8.050;2022-09-24T16:39:12;20.42;;;12.48;;
35276;SDS011;21401;50.878;8.050;2022-09-24T16:41:39;14.40;;;12.13;;
35276;SDS011;21401;50.878;8.050;2022-09-24T16:44:09;16.45;;;12.07;;
35276;SDS011;21401;50.878;8.050;2022-09-24T16:46:39;22.98;;;13.77;;
35276;SDS011;21401;50.878;8.050;2022-09-24T16:49:04;18.48;;;12.32;;
35276;SDS011;21401;50.878;8.050;2022-09-24T16:51:30;18.38;;;13.95;;
35276;SDS011;21401;50.878;8.050;2022-09-24T16:53:55;19.27;;;13.38;;
35276;SDS011;21401;50.878;8.050;2022-09-24T16:56:21;17.35;;;12.93;;
35276;SDS011;21401;50.878;8.050;2022-09-24T16:58:50;21.27;;;14.25;;
35276;SDS011;21401;50.878;8.050;2022-09-24T17:01:19;18.02;;;12.63;;
35276;SDS011;21401;50.878;8.050;2022-09-24T17:03:52;15.93;;;12.68;;
35276;SDS011;21401;50.878;8.050;2022-09-24T17:06:20;19.50;;;13.18;;
35276;SDS011;21401;50.878;8.050;2022-09-24T17:08:49;18.40;;;13.20;;
35276;SDS011;21401;50.878;8.050;2022-09-24T17:11:34;16.58;;;11.43;;
35276;SDS011;21401;50.878;8.050;2022-09-24T17:14:01;19.05;;;13.68;;
35276;SDS011;21401;50.878;8.050;2022-09-24T17:16:26;18.80;;;12.95;;